EGKK - London / Gatwick Airport
Distance from station: E 5mi, 14km
Updated: 10/16/2017 10:50pm
Clear
Clear
 Wind from S
Wind: S 3 mph , 6 km/h
Temperature: 50°F , 10°C
Dew Point: 45°F , 7°C
Humidity: 82%
Barometer: 30.12 inHg , 1020 hPa
Summary: Clear
Visibility: greater than 7 miles , 10 km
2017/10/17 05:50 EGKK 170550Z 18003KT CAVOK 10/07 Q1020